sensor_id;sensor_type;location;lat;lon;timestamp;pressure;altitude;pressure_sealevel;temperature;humidity
36378;BME280;22402;42.746;23.606;2023-01-15T03:46:59;93815.31;;;3.21;100.00
36378;BME280;22402;42.746;23.606;2023-01-15T03:49:39;93813.66;;;3.20;100.00
36378;BME280;22402;42.746;23.606;2023-01-15T03:52:15;93811.00;;;3.22;100.00
36378;BME280;22402;42.746;23.606;2023-01-15T03:54:52;93821.38;;;3.20;100.00
36378;BME280;22402;42.746;23.606;2023-01-15T04:00:08;93809.31;;;3.20;100.00
36378;BME280;22402;42.746;23.606;2023-01-15T04:02:35;93812.00;;;3.19;100.00
36378;BME280;22402;42.746;23.606;2023-01-15T04:05:02;93808.59;;;3.18;100.00
36378;BME280;22402;42.746;23.606;2023-01-15T04:07:29;93818.06;;;3.18;100.00
36378;BME280;22402;42.746;23.606;2023-01-15T04:09:55;93813.84;;;3.17;100.00
36378;BME280;22402;42.746;23.606;2023-01-15T04:12:21;93813.84;;;3.17;100.00
36378;BME280;22402;42.746;23.606;2023-01-15T04:14:46;93810.50;;;3.15;100.00
36378;BME280;22402;42.746;23.606;2023-01-15T04:17:12;93818.25;;;3.15;100.00
36378;BME280;22402;42.746;23.606;2023-01-15T04:19:37;93814.94;;;3.13;100.00
36378;BME280;22402;42.746;23.606;2023-01-15T04:22:03;93820.94;;;3.13;100.00
36378;BME280;22402;42.746;23.606;2023-01-15T04:24:28;93812.63;;;3.08;100.00
36378;BME280;22402;42.746;23.606;2023-01-15T04:26:53;93811.06;;;3.06;100.00
36378;BME280;22402;42.746;23.606;2023-01-15T04:29:19;93814.66;;;3.03;100.00
36378;BME280;22402;42.746;23.606;2023-01-15T04:31:44;93817.31;;;3.02;100.00
36378;BME280;22402;42.746;23.606;2023-01-15T04:34:10;93823.41;;;3.01;100.00
36378;BME280;22402;42.746;23.606;2023-01-15T04:50:11;93835.81;;;3.08;100.00
36378;BME280;22402;42.746;23.606;2023-01-15T04:52:37;93840.22;;;3.06;100.00
36378;BME280;22402;42.746;23.606;2023-01-15T04:55:03;93834.25;;;3.06;100.00
36378;BME280;22402;42.746;23.606;2023-01-15T05:01:26;93842.72;;;3.08;100.00
36378;BME280;22402;42.746;23.606;2023-01-15T05:03:51;93837.75;;;3.05;100.00
36378;BME280;22402;42.746;23.606;2023-01-15T05:06:17;93839.56;;;3.03;100.00
36378;BME280;22402;42.746;23.606;2023-01-15T05:08:43;93840.41;;;3.03;100.00
36378;BME280;22402;42.746;23.606;2023-01-15T05:11:08;93828.63;;;2.99;100.00
36378;BME280;22402;42.746;23.606;2023-01-15T05:13:33;93833.88;;;2.97;100.00
36378;BME280;22402;42.746;23.606;2023-01-15T05:16:13;93828.91;;;2.94;100.00
36378;BME280;22402;42.746;23.606;2023-01-15T05:18:40;93842.63;;;2.95;100.00
36378;BME280;22402;42.746;23.606;2023-01-15T05:21:08;93830.75;;;2.92;100.00
36378;BME280;22402;42.746;23.606;2023-01-15T05:23:37;93832.69;;;2.89;100.00
36378;BME280;22402;42.746;23.606;2023-01-15T05:26:03;93835.16;;;2.90;100.00
36378;BME280;22402;42.746;23.606;2023-01-15T05:28:28;93832.75;;;2.87;100.00
36378;BME280;22402;42.746;23.606;2023-01-15T05:30:53;93839.66;;;2.87;100.00
36378;BME280;22402;42.746;23.606;2023-01-15T05:33:18;93834.41;;;2.88;100.00
36378;BME280;22402;42.746;23.606;2023-01-15T05:35:44;93838.91;;;2.85;100.00
36378;BME280;22402;42.746;23.606;2023-01-15T05:38:09;93830.53;;;2.81;100.00
36378;BME280;22402;42.746;23.606;2023-01-15T05:40:35;93824.56;;;2.81;100.00
36378;BME280;22402;42.746;23.606;2023-01-15T05:43:00;93840.00;;;2.81;100.00
36378;BME280;22402;42.746;23.606;2023-01-15T05:45:25;93837.25;;;2.84;100.00
36378;BME280;22402;42.746;23.606;2023-01-15T05:47:54;93838.66;;;2.89;100.00
36378;BME280;22402;42.746;23.606;2023-01-15T05:50:20;93830.34;;;2.84;100.00
36378;BME280;22402;42.746;23.606;2023-01-15T05:52:45;93832.00;;;2.85;100.00
36378;BME280;22402;42.746;23.606;2023-01-15T05:55:10;93825.19;;;2.84;100.00
36378;BME280;22402;42.746;23.606;2023-01-15T05:57:35;93833.75;;;2.85;100.00
36378;BME280;22402;42.746;23.606;2023-01-15T06:00:01;93843.81;;;2.89;100.00
36378;BME280;22402;42.746;23.606;2023-01-15T06:02:26;93833.56;;;2.88;100.00
36378;BME280;22402;42.746;23.606;2023-01-15T06:04:52;93842.81;;;2.92;100.00
36378;BME280;22402;42.746;23.606;2023-01-15T06:07:17;93833.50;;;2.89;100.00
36378;BME280;22402;42.746;23.606;2023-01-15T06:09:43;93832.50;;;2.92;100.00
36378;BME280;22402;42.746;23.606;2023-01-15T06:12:08;93844.28;;;2.96;100.00
36378;BME280;22402;42.746;23.606;2023-01-15T06:14:34;93828.16;;;2.92;100.00
36378;BME280;22402;42.746;23.606;2023-01-15T06:16:59;93836.66;;;2.94;100.00
36378;BME280;22402;42.746;23.606;2023-01-15T06:19:25;93840.88;;;2.95;100.00
36378;BME280;22402;42.746;23.606;2023-01-15T06:21:50;93843.44;;;2.95;100.00
36378;BME280;22402;42.746;23.606;2023-01-15T06:24:15;93844.09;;;2.99;100.00
36378;BME280;22402;42.746;23.606;2023-01-15T06:26:41;93844.84;;;3.01;100.00
36378;BME280;22402;42.746;23.606;2023-01-15T06:29:06;93837.94;;;3.02;100.00
36378;BME280;22402;42.746;23.606;2023-01-15T06:31:31;93837.00;;;3.03;100.00
36378;BME280;22402;42.746;23.606;2023-01-15T06:33:57;93832.69;;;3.03;100.00
36378;BME280;22402;42.746;23.606;2023-01-15T06:36:24;93833.53;;;3.04;100.00
36378;BME280;22402;42.746;23.606;2023-01-15T06:38:50;93838.50;;;3.07;100.00
36378;BME280;22402;42.746;23.606;2023-01-15T06:41:23;93829.09;;;3.06;100.00
36378;BME280;22402;42.746;23.606;2023-01-15T06:43:49;93835.81;;;3.08;100.00
36378;BME280;22402;42.746;23.606;2023-01-15T06:46:15;93835.00;;;3.08;100.00
36378;BME280;22402;42.746;23.606;2023-01-15T06:48:41;93835.75;;;3.10;100.00
36378;BME280;22402;42.746;23.606;2023-01-15T06:51:06;93832.06;;;3.14;100.00
36378;BME280;22402;42.746;23.606;2023-01-15T06:53:31;93833.81;;;3.13;100.00
36378;BME280;22402;42.746;23.606;2023-01-15T06:55:57;93836.28;;;3.15;100.00
36378;BME280;22402;42.746;23.606;2023-01-15T06:58:22;93833.63;;;3.16;100.00
36378;BME280;22402;42.746;23.606;2023-01-15T07:00:47;93836.03;;;3.19;100.00
36378;BME280;22402;42.746;23.606;2023-01-15T07:03:12;93835.09;;;3.20;100.00
36378;BME280;22402;42.746;23.606;2023-01-15T07:05:38;93841.06;;;3.21;100.00
36378;BME280;22402;42.746;23.606;2023-01-15T07:08:04;93837.59;;;3.22;100.00
36378;BME280;22402;42.746;23.606;2023-01-15T07:10:29;93838.31;;;3.24;100.00
36378;BME280;22402;42.746;23.606;2023-01-15T07:12:54;93831.31;;;3.26;100.00
36378;BME280;22402;42.746;23.606;2023-01-15T07:15:20;93833.81;;;3.28;100.00
36378;BME280;22402;42.746;23.606;2023-01-15T07:17:45;93833.81;;;3.28;100.00
36378;BME280;22402;42.746;23.606;2023-01-15T07:20:11;93839.63;;;3.31;100.00
36378;BME280;22402;42.746;23.606;2023-01-15T07:22:36;93843.41;;;3.40;100.00
36378;BME280;22402;42.746;23.606;2023-01-15T07:25:02;93832.78;;;3.45;100.00
36378;BME280;22402;42.746;23.606;2023-01-15T07:27:27;93840.34;;;3.62;100.00
36378;BME280;22402;42.746;23.606;2023-01-15T07:29:52;93841.47;;;3.58;100.00
36378;BME280;22402;42.746;23.606;2023-01-15T07:32:18;93838.78;;;3.59;100.00
36378;BME280;22402;42.746;23.606;2023-01-15T07:34:43;93832.41;;;3.65;100.00
36378;BME280;22402;42.746;23.606;2023-01-15T07:37:09;93833.16;;;3.67;100.00
36378;BME280;22402;42.746;23.606;2023-01-15T07:39:35;93838.78;;;3.74;100.00
36378;BME280;22402;42.746;23.606;2023-01-15T07:42:00;93843.47;;;3.81;100.00
36378;BME280;22402;42.746;23.606;2023-01-15T07:44:26;93843.56;;;3.80;100.00
36378;BME280;22402;42.746;23.606;2023-01-15T07:46:51;93846.13;;;3.80;100.00
36378;BME280;22402;42.746;23.606;2023-01-15T07:49:16;93852.59;;;3.87;100.00
36378;BME280;22402;42.746;23.606;2023-01-15T07:51:42;93856.00;;;3.87;100.00
36378;BME280;22402;42.746;23.606;2023-01-15T07:54:07;93865.19;;;3.92;100.00
36378;BME280;22402;42.746;23.606;2023-01-15T07:56:32;93861.78;;;3.91;100.00
36378;BME280;22402;42.746;23.606;2023-01-15T07:58:58;93855.69;;;3.92;100.00
36378;BME280;22402;42.746;23.606;2023-01-15T08:01:23;93858.38;;;3.91;100.00
36378;BME280;22402;42.746;23.606;2023-01-15T08:03:48;93857.38;;;3.93;100.00
36378;BME280;22402;42.746;23.606;2023-01-15T08:06:14;93861.50;;;3.96;100.00
36378;BME280;22402;42.746;23.606;2023-01-15T08:08:39;93859.56;;;3.99;100.00
36378;BME280;22402;42.746;23.606;2023-01-15T08:11:04;93856.69;;;4.04;100.00
36378;BME280;22402;42.746;23.606;2023-01-15T08:13:30;93861.75;;;4.05;100.00
36378;BME280;22402;42.746;23.606;2023-01-15T08:15:55;93863.72;;;4.02;100.00
36378;BME280;22402;42.746;23.606;2023-01-15T08:27:36;93865.72;;;4.11;100.00
36378;BME280;22402;42.746;23.606;2023-01-15T08:30:02;93870.69;;;4.14;100.00
36378;BME280;22402;42.746;23.606;2023-01-15T08:32:28;93874.72;;;4.18;100.00
36378;BME280;22402;42.746;23.606;2023-01-15T08:34:53;93859.34;;;4.17;100.00
36378;BME280;22402;42.746;23.606;2023-01-15T08:37:18;93872.69;;;4.23;100.00
36378;BME280;22402;42.746;23.606;2023-01-15T08:39:44;93866.03;;;4.19;100.00
36378;BME280;22402;42.746;23.606;2023-01-15T08:42:09;93864.13;;;4.23;100.00
36378;BME280;22402;42.746;23.606;2023-01-15T08:44:34;93862.44;;;4.22;100.00
36378;BME280;22402;42.746;23.606;2023-01-15T08:47:00;93874.25;;;4.26;100.00
36378;BME280;22402;42.746;23.606;2023-01-15T10:44:04;93730.84;;;5.49;87.82
36378;BME280;22402;42.746;23.606;2023-01-15T10:46:35;93733.66;;;5.46;87.85
36378;BME280;22402;42.746;23.606;2023-01-15T10:49:04;93720.84;;;5.45;88.73
36378;BME280;22402;42.746;23.606;2023-01-15T10:51:54;93720.22;;;5.41;89.17
36378;BME280;22402;42.746;23.606;2023-01-15T10:54:23;93718.47;;;5.42;88.96
36378;BME280;22402;42.746;23.606;2023-01-15T10:57:16;93720.84;;;5.45;88.94
36378;BME280;22402;42.746;23.606;2023-01-15T12:03:57;93634.25;;;5.75;86.01
36378;BME280;22402;42.746;23.606;2023-01-15T12:06:24;93629.06;;;5.75;85.71
36378;BME280;22402;42.746;23.606;2023-01-15T12:09:05;93630.22;;;5.70;84.99
36378;BME280;22402;42.746;23.606;2023-01-15T12:14:30;93623.94;;;5.62;86.98
36378;BME280;22402;42.746;23.606;2023-01-15T12:20:06;93616.81;;;5.77;86.93
36378;BME280;22402;42.746;23.606;2023-01-15T12:38:31;93602.53;;;6.19;85.13
36378;BME280;22402;42.746;23.606;2023-01-15T12:41:09;93599.47;;;6.14;85.32
36378;BME280;22402;42.746;23.606;2023-01-15T12:43:36;93595.94;;;6.15;85.00
36378;BME280;22402;42.746;23.606;2023-01-15T12:46:02;93593.34;;;6.15;85.61
36378;BME280;22402;42.746;23.606;2023-01-15T12:48:36;93593.56;;;6.12;85.24
36378;BME280;22402;42.746;23.606;2023-01-15T12:51:04;93586.16;;;6.19;85.58
36378;BME280;22402;42.746;23.606;2023-01-15T12:53:43;93581.38;;;6.25;85.21
36378;BME280;22402;42.746;23.606;2023-01-15T12:56:36;93585.28;;;6.31;83.51
36378;BME280;22402;42.746;23.606;2023-01-15T12:59:16;93577.59;;;6.29;83.80
36378;BME280;22402;42.746;23.606;2023-01-15T13:20:51;93562.91;;;6.86;82.88
36378;BME280;22402;42.746;23.606;2023-01-15T13:28:55;93553.81;;;6.92;81.50
36378;BME280;22402;42.746;23.606;2023-01-15T13:31:40;93553.50;;;6.85;80.88
36378;BME280;22402;42.746;23.606;2023-01-15T13:36:59;93546.78;;;6.94;80.20
36378;BME280;22402;42.746;23.606;2023-01-15T13:39:39;93542.75;;;6.90;79.66
36378;BME280;22402;42.746;23.606;2023-01-15T13:42:24;93545.47;;;6.88;80.01
36378;BME280;22402;42.746;23.606;2023-01-15T13:44:51;93536.31;;;6.73;79.72
36378;BME280;22402;42.746;23.606;2023-01-15T13:47:20;93542.88;;;6.66;80.78
36378;BME280;22402;42.746;23.606;2023-01-15T13:49:56;93537.84;;;6.53;81.54
36378;BME280;22402;42.746;23.606;2023-01-15T13:52:40;93549.94;;;6.41;82.73
36378;BME280;22402;42.746;23.606;2023-01-15T13:58:54;93538.63;;;6.20;83.64
36378;BME280;22402;42.746;23.606;2023-01-15T14:01:40;93553.94;;;6.23;84.31
36378;BME280;22402;42.746;23.606;2023-01-15T14:04:12;93546.41;;;6.20;85.27
36378;BME280;22402;42.746;23.606;2023-01-15T14:06:42;93545.81;;;6.16;85.00
36378;BME280;22402;42.746;23.606;2023-01-15T14:09:27;93544.50;;;6.10;84.69
36378;BME280;22402;42.746;23.606;2023-01-15T14:15:05;93546.13;;;6.00;85.58
36378;BME280;22402;42.746;23.606;2023-01-15T14:20:56;93547.13;;;5.86;87.98
36378;BME280;22402;42.746;23.606;2023-01-15T14:28:30;93548.09;;;5.61;88.36
36378;BME280;22402;42.746;23.606;2023-01-15T14:31:46;93532.06;;;5.45;88.96
36378;BME280;22402;42.746;23.606;2023-01-15T14:34:28;93544.03;;;5.46;89.45
36378;BME280;22402;42.746;23.606;2023-01-15T14:37:03;93549.94;;;5.48;89.56
36378;BME280;22402;42.746;23.606;2023-01-15T14:42:02;93540.28;;;5.39;89.96
36378;BME280;22402;42.746;23.606;2023-01-15T14:44:31;93545.66;;;5.36;89.77
36378;BME280;22402;42.746;23.606;2023-01-15T14:47:02;93544.00;;;5.35;90.58
36378;BME280;22402;42.746;23.606;2023-01-15T14:49:30;93540.72;;;5.33;90.82
36378;BME280;22402;42.746;23.606;2023-01-15T14:51:57;93545.38;;;5.28;90.09
36378;BME280;22402;42.746;23.606;2023-01-15T14:54:23;93543.03;;;5.24;90.26
36378;BME280;22402;42.746;23.606;2023-01-15T14:56:53;93551.91;;;5.20;90.56
36378;BME280;22402;42.746;23.606;2023-01-15T15:04:53;93544.94;;;5.10;92.35
36378;BME280;22402;42.746;23.606;2023-01-15T15:07:21;93539.59;;;5.00;93.91
36378;BME280;22402;42.746;23.606;2023-01-15T15:09:58;93544.03;;;4.98;94.12
36378;BME280;22402;42.746;23.606;2023-01-15T15:20:45;93535.97;;;4.66;94.88
36378;BME280;22402;42.746;23.606;2023-01-15T15:23:33;93546.28;;;4.66;95.41
36378;BME280;22402;42.746;23.606;2023-01-15T15:26:37;93550.84;;;4.62;95.24
36378;BME280;22402;42.746;23.606;2023-01-15T15:29:10;93533.13;;;4.45;95.96
36378;BME280;22402;42.746;23.606;2023-01-15T15:31:58;93535.81;;;4.43;96.46
36378;BME280;22402;42.746;23.606;2023-01-15T15:34:32;93549.53;;;4.44;96.95
36378;BME280;22402;42.746;23.606;2023-01-15T15:37:03;93546.75;;;4.34;97.23
36378;BME280;22402;42.746;23.606;2023-01-15T15:42:27;93546.75;;;4.21;98.29
36378;BME280;22402;42.746;23.606;2023-01-15T15:44:57;93548.31;;;4.11;97.91
36378;BME280;22402;42.746;23.606;2023-01-15T15:47:24;93553.06;;;4.04;98.17
36378;BME280;22402;42.746;23.606;2023-01-15T15:49:50;93553.38;;;4.00;98.78
36378;BME280;22402;42.746;23.606;2023-01-15T15:52:21;93548.63;;;3.94;98.73
36378;BME280;22402;42.746;23.606;2023-01-15T15:54:59;93546.34;;;3.89;99.04
36378;BME280;22402;42.746;23.606;2023-01-15T15:57:30;93557.69;;;3.86;99.14
36378;BME280;22402;42.746;23.606;2023-01-15T15:59:56;93548.63;;;3.81;99.60
36378;BME280;22402;42.746;23.606;2023-01-15T16:02:29;93557.59;;;3.75;99.91
36378;BME280;22402;42.746;23.606;2023-01-15T16:05:01;93551.69;;;3.73;99.49
36378;BME280;22402;42.746;23.606;2023-01-15T16:07:29;93549.41;;;3.69;100.00
36378;BME280;22402;42.746;23.606;2023-01-15T16:09:58;93547.16;;;3.64;100.00
36378;BME280;22402;42.746;23.606;2023-01-15T16:12:28;93553.94;;;3.65;100.00
36378;BME280;22402;42.746;23.606;2023-01-15T16:14:54;93542.38;;;3.58;100.00
36378;BME280;22402;42.746;23.606;2023-01-15T16:17:23;93542.59;;;3.55;100.00
36378;BME280;22402;42.746;23.606;2023-01-15T16:19:49;93544.44;;;3.53;100.00
36378;BME280;22402;42.746;23.606;2023-01-15T16:22:16;93544.00;;;3.46;100.00
36378;BME280;22402;42.746;23.606;2023-01-15T16:24:57;93543.06;;;3.47;100.00
36378;BME280;22402;42.746;23.606;2023-01-15T16:27:31;93543.00;;;3.49;100.00
36378;BME280;22402;42.746;23.606;2023-01-15T16:29:57;93540.16;;;3.39;100.00
36378;BME280;22402;42.746;23.606;2023-01-15T16:32:29;93541.91;;;3.38;100.00
36378;BME280;22402;42.746;23.606;2023-01-15T16:35:20;93550.19;;;3.43;100.00
36378;BME280;22402;42.746;23.606;2023-01-15T16:37:52;93545.22;;;3.40;100.00
36378;BME280;22402;42.746;23.606;2023-01-15T16:43:15;93543.44;;;3.28;100.00
36378;BME280;22402;42.746;23.606;2023-01-15T16:46:04;93549.53;;;3.27;100.00
36378;BME280;22402;42.746;23.606;2023-01-15T16:49:39;93552.00;;;3.29;100.00
36378;BME280;22402;42.746;23.606;2023-01-15T16:51:39;93535.56;;;3.17;100.00
36378;BME280;22402;42.746;23.606;2023-01-15T16:54:08;93533.44;;;3.24;100.00
36378;BME280;22402;42.746;23.606;2023-01-15T16:56:52;93537.13;;;3.19;100.00
36378;BME280;22402;42.746;23.606;2023-01-15T17:02:15;93533.00;;;3.17;100.00
36378;BME280;22402;42.746;23.606;2023-01-15T17:04:43;93536.50;;;3.16;100.00
36378;BME280;22402;42.746;23.606;2023-01-15T17:09:47;93534.13;;;3.13;100.00
36378;BME280;22402;42.746;23.606;2023-01-15T17:12:20;93528.78;;;3.16;100.00
36378;BME280;22402;42.746;23.606;2023-01-15T17:14:48;93532.75;;;3.07;100.00
36378;BME280;22402;42.746;23.606;2023-01-15T17:19:50;93529.25;;;3.08;100.00
36378;BME280;22402;42.746;23.606;2023-01-15T17:22:26;93541.19;;;3.09;100.00
36378;BME280;22402;42.746;23.606;2023-01-15T17:24:57;93538.53;;;3.11;100.00
36378;BME280;22402;42.746;23.606;2023-01-15T17:27:24;93528.00;;;3.01;100.00
36378;BME280;22402;42.746;23.606;2023-01-15T17:29:50;93525.50;;;3.00;100.00
36378;BME280;22402;42.746;23.606;2023-01-15T17:32:19;93533.78;;;3.05;100.00
36378;BME280;22402;42.746;23.606;2023-01-15T17:34:47;93537.09;;;3.07;100.00
36378;BME280;22402;42.746;23.606;2023-01-15T17:37:13;93532.97;;;3.04;100.00
36378;BME280;22402;42.746;23.606;2023-01-15T17:39:38;93527.38;;;2.97;100.00
36378;BME280;22402;42.746;23.606;2023-01-15T17:42:15;93531.78;;;2.95;100.00
36378;BME280;22402;42.746;23.606;2023-01-15T17:44:42;93539.59;;;2.94;100.00
36378;BME280;22402;42.746;23.606;2023-01-15T17:47:07;93537.41;;;2.88;100.00
36378;BME280;22402;42.746;23.606;2023-01-15T17:49:33;93535.97;;;2.84;100.00
36378;BME280;22402;42.746;23.606;2023-01-15T17:51:59;93534.56;;;2.92;100.00
36378;BME280;22402;42.746;23.606;2023-01-15T17:54:26;93538.03;;;2.91;100.00
36378;BME280;22402;42.746;23.606;2023-01-15T17:56:51;93539.91;;;2.89;100.00
36378;BME280;22402;42.746;23.606;2023-01-15T17:59:16;93536.41;;;2.90;100.00
36378;BME280;22402;42.746;23.606;2023-01-15T18:01:43;93528.13;;;2.85;100.00
36378;BME280;22402;42.746;23.606;2023-01-15T18:06:55;93523.34;;;2.79;100.00
36378;BME280;22402;42.746;23.606;2023-01-15T18:09:21;93520.91;;;2.78;100.00
36378;BME280;22402;42.746;23.606;2023-01-15T18:11:47;93521.72;;;2.78;100.00
36378;BME280;22402;42.746;23.606;2023-01-15T18:14:12;93532.56;;;2.83;100.00
36378;BME280;22402;42.746;23.606;2023-01-15T18:16:38;93527.88;;;2.76;100.00
36378;BME280;22402;42.746;23.606;2023-01-15T18:19:03;93517.78;;;2.72;100.00
36378;BME280;22402;42.746;23.606;2023-01-15T18:21:29;93529.91;;;2.70;100.00
36378;BME280;22402;42.746;23.606;2023-01-15T18:23:54;93523.03;;;2.71;100.00
36378;BME280;22402;42.746;23.606;2023-01-15T18:26:20;93522.09;;;2.72;100.00
36378;BME280;22402;42.746;23.606;2023-01-15T18:28:45;93519.41;;;2.73;100.00
36378;BME280;22402;42.746;23.606;2023-01-15T18:31:14;93516.75;;;2.75;100.00
36378;BME280;22402;42.746;23.606;2023-01-15T18:33:39;93519.81;;;2.67;100.00
36378;BME280;22402;42.746;23.606;2023-01-15T18:36:10;93518.28;;;2.65;100.00
36378;BME280;22402;42.746;23.606;2023-01-15T18:38:36;93527.00;;;2.62;100.00
36378;BME280;22402;42.746;23.606;2023-01-15T18:41:19;93522.13;;;2.58;100.00
36378;BME280;22402;42.746;23.606;2023-01-15T18:43:45;93527.28;;;2.58;100.00
36378;BME280;22402;42.746;23.606;2023-01-15T18:46:10;93527.19;;;2.59;100.00
36378;BME280;22402;42.746;23.606;2023-01-15T18:48:35;93531.50;;;2.59;100.00
36378;BME280;22402;42.746;23.606;2023-01-15T18:51:08;93527.19;;;2.59;100.00
36378;BME280;22402;42.746;23.606;2023-01-15T18:53:33;93517.63;;;2.61;100.00
36378;BME280;22402;42.746;23.606;2023-01-15T18:56:03;93520.28;;;2.60;100.00
36378;BME280;22402;42.746;23.606;2023-01-15T18:58:29;93522.69;;;2.63;100.00
36378;BME280;22402;42.746;23.606;2023-01-15T19:00:54;93516.78;;;2.61;100.00
36378;BME280;22402;42.746;23.606;2023-01-15T19:03:19;93504.13;;;2.58;100.00
36378;BME280;22402;42.746;23.606;2023-01-15T19:05:45;93510.00;;;2.60;100.00
36378;BME280;22402;42.746;23.606;2023-01-15T19:08:10;93509.06;;;2.61;100.00
36378;BME280;22402;42.746;23.606;2023-01-15T19:10:36;93504.94;;;2.58;100.00
36378;BME280;22402;42.746;23.606;2023-01-15T19:13:02;93505.03;;;2.57;100.00
36378;BME280;22402;42.746;23.606;2023-01-15T19:15:28;93503.28;;;2.57;100.00
36378;BME280;22402;42.746;23.606;2023-01-15T19:17:53;93503.09;;;2.60;100.00
36378;BME280;22402;42.746;23.606;2023-01-15T19:20:19;93504.13;;;2.58;100.00
36378;BME280;22402;42.746;23.606;2023-01-15T19:22:44;93504.31;;;2.55;100.00
36378;BME280;22402;42.746;23.606;2023-01-15T19:25:10;93505.94;;;2.56;100.00
36378;BME280;22402;42.746;23.606;2023-01-15T19:27:36;93498.97;;;2.58;100.00
36378;BME280;22402;42.746;23.606;2023-01-15T19:30:01;93496.19;;;2.61;100.00
36378;BME280;22402;42.746;23.606;2023-01-15T19:32:27;93485.72;;;2.64;100.00
36378;BME280;22402;42.746;23.606;2023-01-15T19:34:52;93491.88;;;2.61;100.00
36378;BME280;22402;42.746;23.606;2023-01-15T19:37:18;93485.63;;;2.65;100.00
36378;BME280;22402;42.746;23.606;2023-01-15T19:39:43;93485.63;;;2.65;100.00
36378;BME280;22402;42.746;23.606;2023-01-15T19:42:12;93481.69;;;2.60;100.00
36378;BME280;22402;42.746;23.606;2023-01-15T19:44:37;93478.47;;;2.56;100.00
36378;BME280;22402;42.746;23.606;2023-01-15T19:47:03;93485.72;;;2.64;100.00
36378;BME280;22402;42.746;23.606;2023-01-15T19:49:33;93490.31;;;2.59;100.00
36378;BME280;22402;42.746;23.606;2023-01-15T19:51:59;93494.56;;;2.60;100.00
36378;BME280;22402;42.746;23.606;2023-01-15T19:54:25;93502.28;;;2.60;100.00
36378;BME280;22402;42.746;23.606;2023-01-15T19:56:50;93492.06;;;2.58;100.00
36378;BME280;22402;42.746;23.606;2023-01-15T19:59:15;93492.53;;;2.65;100.00
36378;BME280;22402;42.746;23.606;2023-01-15T20:01:44;93496.00;;;2.64;100.00
36378;BME280;22402;42.746;23.606;2023-01-15T20:04:10;93490.84;;;2.64;100.00
36378;BME280;22402;42.746;23.606;2023-01-15T20:06:35;93480.88;;;2.59;100.00
36378;BME280;22402;42.746;23.606;2023-01-15T20:09:01;93479.75;;;2.63;100.00
36378;BME280;22402;42.746;23.606;2023-01-15T20:11:27;93489.19;;;2.77;100.00
36378;BME280;22402;42.746;23.606;2023-01-15T20:13:54;93490.00;;;2.78;100.00
36378;BME280;22402;42.746;23.606;2023-01-15T20:16:21;93493.13;;;2.83;100.00
36378;BME280;22402;42.746;23.606;2023-01-15T20:18:50;93495.38;;;2.87;100.00
36378;BME280;22402;42.746;23.606;2023-01-15T20:21:16;93499.25;;;2.94;100.00
36378;BME280;22402;42.746;23.606;2023-01-15T20:23:41;93499.94;;;2.96;100.00
36378;BME280;22402;42.746;23.606;2023-01-15T20:26:09;93491.69;;;2.91;100.00
36378;BME280;22402;42.746;23.606;2023-01-15T20:28:36;93496.47;;;2.97;100.00
36378;BME280;22402;42.746;23.606;2023-01-15T20:31:02;93499.56;;;3.03;100.00
36378;BME280;22402;42.746;23.606;2023-01-15T20:33:27;93508.03;;;3.05;100.00
36378;BME280;22402;42.746;23.606;2023-01-15T20:35:53;93497.53;;;3.08;100.00
36378;BME280;22402;42.746;23.606;2023-01-15T20:38:20;93481.31;;;3.06;100.00
36378;BME280;22402;42.746;23.606;2023-01-15T20:40:46;93494.00;;;3.09;100.00
36378;BME280;22402;42.746;23.606;2023-01-15T20:43:11;93493.31;;;3.07;100.00
36378;BME280;22402;42.746;23.606;2023-01-15T20:45:36;93498.34;;;3.08;100.00
36378;BME280;22402;42.746;23.606;2023-01-15T20:48:02;93495.47;;;3.13;100.00
36378;BME280;22402;42.746;23.606;2023-01-15T20:50:30;93483.50;;;3.12;100.00
36378;BME280;22402;42.746;23.606;2023-01-15T20:52:56;93482.59;;;3.13;100.00
36378;BME280;22402;42.746;23.606;2023-01-15T20:55:22;93491.16;;;3.13;100.00
36378;BME280;22402;42.746;23.606;2023-01-15T20:57:47;93480.03;;;3.13;100.00
36378;BME280;22402;42.746;23.606;2023-01-15T21:00:18;93484.38;;;3.12;100.00
36378;BME280;22402;42.746;23.606;2023-01-15T21:02:44;93480.22;;;3.10;100.00
36378;BME280;22402;42.746;23.606;2023-01-15T21:05:10;93488.84;;;3.09;100.00
36378;BME280;22402;42.746;23.606;2023-01-15T21:07:36;93484.72;;;3.06;100.00
36378;BME280;22402;42.746;23.606;2023-01-15T21:10:04;93485.19;;;3.13;100.00
36378;BME280;22402;42.746;23.606;2023-01-15T21:12:30;93477.44;;;3.13;100.00
36378;BME280;22402;42.746;23.606;2023-01-15T21:14:55;93485.56;;;3.07;100.00
36378;BME280;22402;42.746;23.606;2023-01-15T21:17:21;93476.19;;;3.06;100.00
36378;BME280;22402;42.746;23.606;2023-01-15T21:19:46;93477.13;;;3.05;100.00
36378;BME280;22402;42.746;23.606;2023-01-15T21:22:12;93476.50;;;3.01;100.00
36378;BME280;22402;42.746;23.606;2023-01-15T21:24:37;93472.16;;;3.02;100.00
36378;BME280;22402;42.746;23.606;2023-01-15T21:27:03;93463.06;;;2.96;100.00
36378;BME280;22402;42.746;23.606;2023-01-15T21:29:28;93469.47;;;3.03;100.00
36378;BME280;22402;42.746;23.606;2023-01-15T21:31:54;93468.66;;;3.03;100.00
36378;BME280;22402;42.746;23.606;2023-01-15T21:34:19;93466.88;;;3.03;100.00
36378;BME280;22402;42.746;23.606;2023-01-15T21:36:45;93469.47;;;3.03;100.00
36378;BME280;22402;42.746;23.606;2023-01-15T21:39:12;93465.16;;;3.04;100.00
36378;BME280;22402;42.746;23.606;2023-01-15T21:41:38;93458.78;;;3.09;100.00
36378;BME280;22402;42.746;23.606;2023-01-15T21:44:03;93461.47;;;3.08;100.00
36378;BME280;22402;42.746;23.606;2023-01-15T21:46:29;93464.13;;;3.06;100.00
36378;BME280;22402;42.746;23.606;2023-01-15T21:48:55;93464.03;;;3.08;100.00
36378;BME280;22402;42.746;23.606;2023-01-15T21:51:21;93455.50;;;3.07;100.00